Time;durP1;ratioP1;P1;durP2;ratioP2;P2;SDS_P1;SDS_P2;PMS_P1;PMS_P2;Temp;Humidity;BMP_temperature;BMP_pressure;BME280_temperature;BME280_humidity;BME280_pressure;Samples;Min_cycle;Max_cycle;Signal;HPM_P1;HPM_P2
2023/01/21 00:00:06;;;;;;;1999.90;999.90;;;;;;;-2.45;100.00;97390.78;5133009;27;20023;-79
2023/01/21 00:02:31;;;;;;;1999.90;999.90;;;;;;;-2.38;100.00;97391.47;5136849;27;20487;-76
2023/01/21 00:04:56;;;;;;;1999.90;999.90;;;;;;;-2.46;100.00;97394.50;5133827;27;20042;-75
2023/01/21 00:07:21;;;;;;;1999.90;999.90;;;;;;;-2.39;100.00;97381.84;5130673;27;20043;-75
2023/01/21 00:09:47;;;;;;;1999.90;999.90;;;;;;;-2.44;100.00;97381.69;5132388;27;20024;-74
2023/01/21 00:12:14;;;;;;;1999.90;999.90;;;;;;;-2.35;100.00;97383.00;5131762;27;20038;-75
2023/01/21 00:14:39;;;;;;;1999.90;999.90;;;;;;;-2.31;100.00;97384.19;5131212;27;20035;-74
2023/01/21 00:17:04;;;;;;;1999.90;999.90;;;;;;;-2.25;100.00;97377.09;5132349;27;20029;-74
2023/01/21 00:19:30;;;;;;;1999.90;999.90;;;;;;;-2.32;100.00;97385.22;5132317;27;20030;-75
2023/01/21 00:21:55;;;;;;;1999.90;999.90;;;;;;;-2.38;100.00;97386.13;5132657;27;20467;-75
2023/01/21 00:24:23;;;;;;;1999.90;999.90;;;;;;;-2.39;100.00;97371.13;5132185;27;20027;-75
2023/01/21 00:26:49;;;;;;;1999.90;999.90;;;;;;;-2.42;100.00;97371.59;5132137;27;20114;-76
2023/01/21 00:29:15;;;;;;;1999.90;999.90;;;;;;;-2.48;100.00;97364.47;5132118;27;20106;-74
2023/01/21 00:31:40;;;;;;;1999.90;999.90;;;;;;;-2.45;100.00;97365.88;5130751;27;20487;-76
2023/01/21 00:34:05;;;;;;;1999.90;999.90;;;;;;;-2.48;100.00;97363.66;5132155;27;20087;-75
2023/01/21 00:36:31;;;;;;;1999.90;999.90;;;;;;;-2.49;100.00;97365.50;5130713;27;21033;-74
2023/01/21 00:38:56;;;;;;;1999.90;999.90;;;;;;;-2.49;100.00;97360.16;5132048;27;20490;-77
2023/01/21 00:41:25;;;;;;;1999.90;999.90;;;;;;;-2.63;100.00;97361.34;5131926;27;20039;-75
2023/01/21 00:43:51;;;;;;;1999.90;999.90;;;;;;;-2.89;100.00;97359.03;5130567;27;20464;-76
2023/01/21 00:46:17;;;;;;;1999.90;999.90;;;;;;;-2.71;100.00;97375.06;5130564;27;20034;-74
2023/01/21 00:48:42;;;;;;;1999.90;999.90;;;;;;;-2.68;100.00;97365.75;5131874;27;20018;-77
2023/01/21 00:51:12;;;;;;;1999.90;999.90;;;;;;;-2.75;100.00;97365.84;5130647;27;20024;-74
2023/01/21 00:53:40;;;;;;;1999.90;999.90;;;;;;;-2.86;100.00;97372.78;5130985;27;20027;-75
2023/01/21 00:56:09;;;;;;;1999.90;999.90;;;;;;;-2.80;100.00;97373.75;5131822;27;20027;-74
2023/01/21 00:58:35;;;;;;;1999.90;999.90;;;;;;;-2.83;100.00;97364.31;5131866;27;20476;-75
2023/01/21 01:01:15;;;;;;;1999.90;999.90;;;;;;;-2.75;100.00;97368.53;5130355;27;20066;-74
2023/01/21 01:03:41;;;;;;;1999.90;999.90;;;;;;;-2.81;100.00;97372.91;5131946;27;20023;-75
2023/01/21 01:06:12;;;;;;;1999.90;999.90;;;;;;;-2.76;100.00;97369.59;5130249;27;20047;-76
2023/01/21 01:08:37;;;;;;;1999.90;999.90;;;;;;;-2.88;100.00;97366.03;5131896;27;20024;-74
2023/01/21 01:11:02;;;;;;;1999.90;999.90;;;;;;;-2.81;100.00;97362.22;5130620;28;20011;-74
2023/01/21 01:13:29;;;;;;;1999.90;999.90;;;;;;;-2.63;100.00;97380.09;5131621;27;20388;-75
2023/01/21 01:15:56;;;;;;;1999.90;999.90;;;;;;;-2.66;100.00;97369.84;5131872;27;20030;-75
2023/01/21 01:18:23;;;;;;;1999.90;999.90;;;;;;;-2.66;100.00;97372.50;5131595;27;20021;-75
2023/01/21 01:20:48;;;;;;;1999.90;999.90;;;;;;;-2.67;100.00;97368.22;5131790;27;20049;-74
2023/01/21 01:23:14;;;;;;;1999.90;999.90;;;;;;;-2.60;100.00;97363.56;5132779;27;20459;-75
2023/01/21 01:25:39;;;;;;;1999.90;999.90;;;;;;;-2.54;100.00;97360.03;5136256;27;20023;-74
2023/01/21 01:28:05;;;;;;;1999.90;999.90;;;;;;;-2.53;100.00;97358.97;5134616;27;20035;-76
2023/01/21 01:30:30;;;;;;;1999.90;999.90;;;;;;;-2.44;100.00;97346.88;5135857;27;20110;-76
2023/01/21 01:32:56;;;;;;;1999.90;999.90;;;;;;;-2.55;100.00;97344.19;5135853;27;20061;-78
2023/01/21 01:35:21;;;;;;;1999.90;999.90;;;;;;;-2.52;100.00;97346.41;5136208;27;20072;-75
2023/01/21 01:37:47;;;;;;;1999.90;999.90;;;;;;;-2.66;100.00;97348.44;5140475;27;20474;-75
2023/01/21 01:40:12;;;;;;;1999.90;999.90;;;;;;;-2.85;100.00;97338.84;5140701;27;20114;-77
2023/01/21 01:42:38;;;;;;;1999.90;999.90;;;;;;;-2.81;100.00;97350.69;5135466;27;20027;-77
2023/01/21 01:45:06;;;;;;;1999.90;999.90;;;;;;;-2.98;100.00;97339.00;5135673;27;20365;-77
2023/01/21 01:47:38;;;;;;;1999.90;999.90;;;;;;;-2.86;100.00;97347.88;5135671;27;20539;-78
2023/01/21 01:50:07;;;;;;;1999.90;999.90;;;;;;;-2.82;100.00;97346.41;5135590;27;20038;-77
2023/01/21 01:52:34;;;;;;;1999.90;999.90;;;;;;;-2.90;100.00;97327.97;5135848;27;20027;-76
2023/01/21 01:55:02;;;;;;;1999.90;999.90;;;;;;;-2.92;100.00;97330.06;5135574;27;20480;-75
2023/01/21 01:57:34;;;;;;;1999.90;999.90;;;;;;;-3.09;100.00;97326.38;5135639;27;20475;-75
2023/01/21 02:00:02;;;;;;;1999.90;999.90;;;;;;;-2.97;100.00;97340.59;5135125;27;20380;-76
2023/01/21 02:02:28;;;;;;;1999.90;999.90;;;;;;;-3.03;100.00;97330.81;5135156;27;20031;-76
2023/01/21 02:04:59;;;;;;;1999.90;999.90;;;;;;;-3.08;100.00;97328.00;5134881;27;20406;-75
2023/01/21 02:07:27;;;;;;;1999.90;999.90;;;;;;;-3.18;100.00;97311.66;5133694;27;20039;-77
2023/01/21 02:09:55;;;;;;;1999.90;999.90;;;;;;;-3.16;100.00;97305.06;5137342;27;20015;-77
2023/01/21 02:12:21;;;;;;;1999.90;999.90;;;;;;;-3.11;100.00;97317.75;5138257;27;20070;-77
2023/01/21 02:14:47;;;;;;;1999.90;999.90;;;;;;;-3.26;100.00;97307.47;5136184;27;20031;-76
2023/01/21 02:17:44;;;;;;;1999.90;999.90;;;;;;;-3.07;100.00;97313.59;5133536;27;20379;-75
2023/01/21 02:20:37;;;;;;;1999.90;999.90;;;;;;;-3.05;100.00;97311.50;5134605;27;20462;-76
2023/01/21 02:23:19;;;;;;;1999.90;999.90;;;;;;;-3.04;100.00;97305.13;5134766;27;20035;-75
2023/01/21 02:26:08;;;;;;;1999.90;999.90;;;;;;;-3.05;100.00;97306.97;5133475;27;20487;-75
2023/01/21 02:29:07;;;;;;;1999.90;999.90;;;;;;;-2.95;100.00;97298.44;5095405;27;20071;-75
2023/01/21 02:31:50;;;;;;;1999.90;999.90;;;;;;;-3.04;100.00;97299.78;5134305;27;20031;-75
2023/01/21 02:34:31;;;;;;;1999.90;999.90;;;;;;;-3.09;100.00;97296.94;5132435;27;20030;-75
2023/01/21 02:36:56;;;;;;;1999.90;999.90;;;;;;;-3.09;100.00;97296.94;5134350;27;20079;-74
2023/01/21 02:39:28;;;;;;;1999.90;999.90;;;;;;;-3.14;100.00;97302.16;5132959;27;20023;-76
2023/01/21 02:42:05;;;;;;;1999.90;999.90;;;;;;;-3.23;100.00;97290.16;5132775;27;20034;-74
2023/01/21 02:44:38;;;;;;;1999.90;999.90;;;;;;;-3.14;100.00;97291.47;5125957;27;20479;-74
2023/01/21 02:47:26;;;;;;;1999.90;999.90;;;;;;;-3.23;100.00;97296.31;5133088;27;20471;-77
2023/01/21 02:49:57;;;;;;;1999.90;999.90;;;;;;;-3.34;100.00;97300.53;5134114;27;20023;-76
2023/01/21 02:52:25;;;;;;;1999.90;999.90;;;;;;;-3.40;100.00;97293.44;5132961;27;20015;-76
2023/01/21 02:54:52;;;;;;;1999.90;999.90;;;;;;;-3.49;100.00;97286.75;5133202;27;20031;-77
2023/01/21 02:57:35;;;;;;;1999.90;999.90;;;;;;;-3.53;100.00;97277.53;5134224;27;20472;-76
2023/01/21 03:00:07;;;;;;;1999.90;999.90;;;;;;;-3.59;100.00;97273.09;5133978;27;20034;-76
2023/01/21 03:02:43;;;;;;;1999.90;999.90;;;;;;;-3.60;100.00;97276.78;5132686;27;20175;-75
2023/01/21 03:05:27;;;;;;;1999.90;999.90;;;;;;;-3.56;100.00;97267.28;5133929;27;20173;-75
2023/01/21 03:08:10;;;;;;;1999.90;999.90;;;;;;;-3.54;100.00;97270.56;5132280;27;20539;-75
2023/01/21 03:11:09;;;;;;;1999.90;999.90;;;;;;;-3.49;100.00;97272.56;5133911;27;20100;-77
2023/01/21 03:19:22;;;;;;;1999.90;999.90;;;;;;;-3.75;100.00;97264.84;5133808;27;20042;-76
2023/01/21 03:21:49;;;;;;;1999.90;999.90;;;;;;;-3.77;100.00;97249.06;5133628;27;20034;-76
2023/01/21 03:24:15;;;;;;;1999.90;999.90;;;;;;;-3.54;100.00;97267.88;5133996;27;20023;-74
2023/01/21 03:26:46;;;;;;;1999.90;999.90;;;;;;;-3.47;100.00;97262.47;5133566;27;20031;-75
2023/01/21 03:29:20;;;;;;;1999.90;999.90;;;;;;;-3.38;100.00;97267.28;5133384;27;20059;-77
2023/01/21 03:31:50;;;;;;;1999.90;999.90;;;;;;;-3.41;100.00;97270.41;5133458;27;20027;-76
2023/01/21 03:34:17;;;;;;;1999.90;999.90;;;;;;;-3.49;100.00;97268.03;5132112;27;20110;-76
2023/01/21 03:36:53;;;;;;;1999.90;999.90;;;;;;;-3.62;100.00;97273.53;5133414;27;20023;-75
2023/01/21 03:39:24;;;;;;;;;;;;;;;-3.64;100.00;97267.59;5133984;27;20027;-76
2023/01/21 03:41:50;;;;;;;1999.90;999.90;;;;;;;-3.68;100.00;97279.78;5133321;27;19911;-75
2023/01/21 03:44:15;;;;;;;1999.90;999.90;;;;;;;-3.70;100.00;97276.50;5119140;27;20039;-76
2023/01/21 03:47:00;;;;;;;1999.90;999.90;;;;;;;-3.64;100.00;97280.16;5130097;27;20027;-77
2023/01/21 03:49:36;;;;;;;1999.90;999.90;;;;;;;-3.77;100.00;97283.78;5123555;27;20051;-75
2023/01/21 03:52:04;;;;;;;1999.90;999.90;;;;;;;-3.64;100.00;97270.28;5111961;28;20104;-75
2023/01/21 03:54:29;;;;;;;1999.90;999.90;;;;;;;-3.68;100.00;97268.25;5112528;28;20024;-76
2023/01/21 03:56:54;;;;;;;1999.90;999.90;;;;;;;-3.72;100.00;97286.59;5111833;28;20023;-75
2023/01/21 03:59:20;;;;;;;1999.90;999.90;;;;;;;-3.75;100.00;97287.03;5112030;28;20028;-75
2023/01/21 04:01:45;;;;;;;1999.90;999.90;;;;;;;-3.83;100.00;97271.31;5122341;27;20039;-75
2023/01/21 04:04:10;;;;;;;1999.90;999.90;;;;;;;-3.94;100.00;97283.53;5131462;27;20486;-76
2023/01/21 04:06:36;;;;;;;1999.90;999.90;;;;;;;-4.04;100.00;97279.75;5131216;27;20078;-76
2023/01/21 04:09:06;;;;;;;1999.90;999.90;;;;;;;-3.95;100.00;97289.09;5130984;27;20068;-76
2023/01/21 04:11:32;;;;;;;1999.90;999.90;;;;;;;-3.90;100.00;97294.59;5131162;27;20036;-75
2023/01/21 04:13:58;;;;;;;1999.90;999.90;;;;;;;-3.90;100.00;97290.06;5132229;27;20030;-75
2023/01/21 04:16:23;;;;;;;1999.90;999.90;;;;;;;-3.87;100.00;97283.47;5132547;27;20031;-76
2023/01/21 04:18:49;;;;;;;1999.90;999.90;;;;;;;-3.95;100.00;97284.56;5133413;27;20027;-76
2023/01/21 04:21:14;;;;;;;1999.90;999.90;;;;;;;-3.90;100.00;97298.06;5133099;27;20110;-75
2023/01/21 04:23:39;;;;;;;1999.90;999.90;;;;;;;-3.92;100.00;97288.66;5136867;27;20068;-75
2023/01/21 04:26:06;;;;;;;1999.90;999.90;;;;;;;-3.95;100.00;97300.59;5133035;27;20027;-74
2023/01/21 04:28:32;;;;;;;1999.90;999.90;;;;;;;-4.08;100.00;97286.53;5131753;27;20034;-76
2023/01/21 04:30:57;;;;;;;1999.90;999.90;;;;;;;-4.06;100.00;97298.63;5131926;27;20028;-75
2023/01/21 04:33:23;;;;;;;1999.90;999.90;;;;;;;-4.04;100.00;97309.09;5131911;27;20379;-74
2023/01/21 04:35:48;;;;;;;1999.90;999.90;;;;;;;-4.01;100.00;97308.66;5130898;27;20037;-74
2023/01/21 04:38:14;;;;;;;1999.90;999.90;;;;;;;-4.09;100.00;97312.41;5121530;27;20059;-76
2023/01/21 04:40:41;;;;;;;1999.90;999.90;;;;;;;-4.07;100.00;97301.53;5111254;28;20035;-75
2023/01/21 04:43:06;;;;;;;1999.90;999.90;;;;;;;-4.16;100.00;97313.50;5111556;28;20031;-75
2023/01/21 04:45:31;;;;;;;1999.90;999.90;;;;;;;-4.19;100.00;97311.28;5111288;28;20024;-77
2023/01/21 04:47:57;;;;;;;1999.90;999.90;;;;;;;-4.17;100.00;97311.88;5110976;28;20034;-75
2023/01/21 04:50:22;;;;;;;1999.90;999.90;;;;;;;-4.28;100.00;97309.91;5109624;28;20027;-75
2023/01/21 04:52:47;;;;;;;1999.90;999.90;;;;;;;-4.38;100.00;97295.19;5109474;28;20031;-76
2023/01/21 04:55:13;;;;;;;1999.90;999.90;;;;;;;-4.33;100.00;97307.91;5111335;28;20024;-75
2023/01/21 04:57:38;;;;;;;1999.90;999.90;;;;;;;-4.42;100.00;97315.34;5110703;28;20019;-76
2023/01/21 05:00:05;;;;;;;1999.90;999.90;;;;;;;-4.57;100.00;97322.03;5110976;28;20436;-76
2023/01/21 05:02:31;;;;;;;1999.90;999.90;;;;;;;-4.85;100.00;97324.28;5110758;28;20024;-75
2023/01/21 05:04:57;;;;;;;1999.90;999.90;;;;;;;-5.10;100.00;97332.16;5110889;28;20059;-75
2023/01/21 05:07:22;;;;;;;1999.90;999.90;;;;;;;-5.06;100.00;97336.88;5110829;28;20067;-75
2023/01/21 05:09:49;;;;;;;1999.90;999.90;;;;;;;-5.00;100.00;97330.69;5090213;28;20052;-76
2023/01/21 05:12:14;;;;;;;1999.90;999.90;;;;;;;-4.93;100.00;97330.66;5088952;28;20035;-76
2023/01/21 05:14:40;;;;;;;1999.90;999.90;;;;;;;-4.73;100.00;97339.34;5090392;28;20043;-75
2023/01/21 05:17:05;;;;;;;1999.90;999.90;;;;;;;-4.79;100.00;97329.53;5090269;28;20032;-75
2023/01/21 05:19:30;;;;;;;1999.90;999.90;;;;;;;-4.74;100.00;97331.59;5090166;28;20024;-76
2023/01/21 05:21:56;;;;;;;1999.90;999.90;;;;;;;-4.76;100.00;97325.66;5090411;28;20067;-76
2023/01/21 05:24:21;;;;;;;1999.90;999.90;;;;;;;-4.77;100.00;97343.50;5090112;28;20111;-75
2023/01/21 05:26:48;;;;;;;1999.90;999.90;;;;;;;-4.93;100.00;97336.81;5090424;28;20111;-75
2023/01/21 05:29:15;;;;;;;1999.90;999.90;;;;;;;-5.04;100.00;97342.81;5090326;28;20075;-77
2023/01/21 05:31:42;;;;;;;1999.90;999.90;;;;;;;-5.06;100.00;97336.06;5090214;28;20024;-75
2023/01/21 05:34:08;;;;;;;1999.90;999.90;;;;;;;-5.01;100.00;97337.03;5104830;28;20027;-76
2023/01/21 05:36:33;;;;;;;1999.90;999.90;;;;;;;-4.96;100.00;97339.09;5108293;28;20035;-75
2023/01/21 05:38:58;;;;;;;1999.90;999.90;;;;;;;-4.91;100.00;97352.59;5110063;28;20043;-76
2023/01/21 05:41:23;;;;;;;1999.90;999.90;;;;;;;-4.92;100.00;97348.31;5108754;28;20059;-76
2023/01/21 05:43:49;;;;;;;1999.90;999.90;;;;;;;-5.05;100.00;97353.69;5110035;28;20418;-77
2023/01/21 05:46:14;;;;;;;1999.90;999.90;;;;;;;-4.98;100.00;97351.81;5110442;28;20032;-76
2023/01/21 05:48:39;;;;;;;1999.90;999.90;;;;;;;-5.04;100.00;97368.63;5110440;28;20122;-75
2023/01/21 05:51:05;;;;;;;1999.90;999.90;;;;;;;-4.98;100.00;97370.47;5110300;28;20039;-75
2023/01/21 05:53:30;;;;;;;1999.90;999.90;;;;;;;-5.04;100.00;97363.31;5110243;28;20055;-75
2023/01/21 05:55:56;;;;;;;1999.90;999.90;;;;;;;-4.94;100.00;97369.81;5110704;28;20024;-75
2023/01/21 05:58:23;;;;;;;1999.90;999.90;;;;;;;-5.03;100.00;97359.63;5110315;28;20035;-75
2023/01/21 06:00:48;;;;;;;1999.90;999.90;;;;;;;-4.85;100.00;97374.94;5110586;28;20114;-76
2023/01/21 06:03:17;;;;;;;1999.90;999.90;;;;;;;-4.84;100.00;97381.88;5110341;28;20114;-74
2023/01/21 06:05:43;;;;;;;1999.90;999.90;;;;;;;-4.83;100.00;97379.03;5110026;28;20024;-76
2023/01/21 06:08:09;;;;;;;1999.90;999.90;;;;;;;-4.70;100.00;97383.47;5108563;28;20442;-75
2023/01/21 06:10:35;;;;;;;1999.90;999.90;;;;;;;-4.64;100.00;97386.09;5112529;28;20592;-76
2023/01/21 06:13:00;;;;;;;1999.90;999.90;;;;;;;-4.67;100.00;97375.88;5113968;28;20091;-75
2023/01/21 06:15:25;;;;;;;1999.90;999.90;;;;;;;-4.70;100.00;97378.13;5114007;28;20172;-75
2023/01/21 06:17:51;;;;;;;1999.90;999.90;;;;;;;-4.58;100.00;97385.25;5113691;28;20020;-77
2023/01/21 06:20:17;;;;;;;1999.90;999.90;;;;;;;-4.62;100.00;97383.22;5112531;28;20012;-76
2023/01/21 06:22:43;;;;;;;1999.90;999.90;;;;;;;-4.53;100.00;97397.94;5113822;28;20095;-75
2023/01/21 06:25:09;;;;;;;1999.90;999.90;;;;;;;-4.58;100.00;97395.91;5114440;28;20012;-76
2023/01/21 06:27:37;;;;;;;1999.90;999.90;;;;;;;-4.62;100.00;97393.88;5114087;28;20148;-74
2023/01/21 06:30:04;;;;;;;1999.90;999.90;;;;;;;-4.74;100.00;97398.25;5115267;28;20081;-76
2023/01/21 06:32:30;;;;;;;1999.90;999.90;;;;;;;-4.77;100.00;97402.16;5114831;28;20019;-76
2023/01/21 06:34:55;;;;;;;1999.90;999.90;;;;;;;-4.62;100.00;97413.38;5114050;27;20024;-76
2023/01/21 06:37:20;;;;;;;1999.90;999.90;;;;;;;-4.68;100.00;97402.72;5112482;28;20036;-75
2023/01/21 06:39:46;;;;;;;1999.90;999.90;;;;;;;-4.54;100.00;97414.97;5113801;28;20073;-75
2023/01/21 06:42:11;;;;;;;1999.90;999.90;;;;;;;-4.60;100.00;97405.13;5113540;28;20034;-76
2023/01/21 06:44:36;;;;;;;1999.90;999.90;;;;;;;-4.49;100.00;97415.97;5113701;27;20028;-74
2023/01/21 06:47:02;;;;;;;1999.90;999.90;;;;;;;-4.53;100.00;97414.75;5113476;28;20060;-75
2023/01/21 06:49:27;;;;;;;1999.90;999.90;;;;;;;-4.55;100.00;97416.84;5113854;28;20468;-75
2023/01/21 06:51:52;;;;;;;1999.90;999.90;;;;;;;-4.60;100.00;97392.63;5109538;28;20546;-75
2023/01/21 06:54:18;;;;;;;1999.90;999.90;;;;;;;-4.48;100.00;97401.59;5093192;28;20028;-74
2023/01/21 06:56:43;;;;;;;1999.90;999.90;;;;;;;-4.51;100.00;97399.34;5093458;28;20534;-76
2023/01/21 06:59:08;;;;;;;1999.90;999.90;;;;;;;-4.33;100.00;97409.31;5092966;28;20024;-75
2023/01/21 07:01:34;;;;;;;1999.90;999.90;;;;;;;-4.23;100.00;97423.00;5092738;28;20052;-75
2023/01/21 07:04:00;;;;;;;1999.90;999.90;;;;;;;-4.46;100.00;97420.88;5091635;28;20020;-76
2023/01/21 07:06:25;;;;;;;1999.90;999.90;;;;;;;-4.40;100.00;97422.69;5092511;28;20044;-74
2023/01/21 07:08:51;;;;;;;1999.90;999.90;;;;;;;-4.43;100.00;97420.44;5092792;28;20074;-74
2023/01/21 07:11:16;;;;;;;1999.90;999.90;;;;;;;-4.42;100.00;97415.94;5092765;28;20062;-75
2023/01/21 07:13:41;;;;;;;1999.90;999.90;;;;;;;-4.49;100.00;97399.16;5092816;28;20435;-75
2023/01/21 07:16:07;;;;;;;1999.90;999.90;;;;;;;-4.45;100.00;97413.69;5092993;28;20076;-75
2023/01/21 07:18:32;;;;;;;1999.90;999.90;;;;;;;-4.38;100.00;97414.47;5106391;28;20106;-74
2023/01/21 07:20:57;;;;;;;1999.90;999.90;;;;;;;-4.07;100.00;97424.34;5090582;28;20473;-76
2023/01/21 07:23:23;;;;;;;1999.90;999.90;;;;;;;-3.58;100.00;97434.22;5102750;28;20032;-75
2023/01/21 07:25:48;;;;;;;1999.90;999.90;;;;;;;-3.54;100.00;97436.22;5111403;28;20124;-75
2023/01/21 07:28:14;;;;;;;1999.90;999.90;;;;;;;-3.76;100.00;97431.50;5112469;28;20084;-75
2023/01/21 07:30:39;;;;;;;1999.90;999.90;;;;;;;-3.83;100.00;97426.22;5112366;28;20039;-75
2023/01/21 07:33:08;;;;;;;1999.90;999.90;;;;;;;-3.69;100.00;97433.06;5111068;28;20024;-76
2023/01/21 07:35:34;;;;;;;1999.90;999.90;;;;;;;-3.76;100.00;97418.16;5100218;28;20060;-75
2023/01/21 07:37:59;;;;;;;1999.90;999.90;;;;;;;-3.78;100.00;97423.69;5093069;28;20036;-73
2023/01/21 07:40:25;;;;;;;1999.90;999.90;;;;;;;-3.60;100.00;97423.75;5092678;28;20390;-76
2023/01/21 07:42:51;;;;;;;1999.90;999.90;;;;;;;-3.51;100.00;97421.63;5092489;28;20103;-75
2023/01/21 07:45:17;;;;;;;1999.90;999.90;;;;;;;-3.45;100.00;97418.91;5092787;28;20020;-74
2023/01/21 07:47:43;;;;;;;1999.90;999.90;;;;;;;-3.37;100.00;97425.78;5091884;28;20036;-74
2023/01/21 07:50:08;;;;;;;1999.90;999.90;;;;;;;-3.48;100.00;97419.34;5090260;28;20119;-73
2023/01/21 07:52:34;;;;;;;1999.90;999.90;;;;;;;-3.14;100.00;97419.81;5091707;28;20077;-75
2023/01/21 07:55:00;;;;;;;1999.90;999.90;;;;;;;-3.09;100.00;97411.94;5091538;28;20129;-75
2023/01/21 07:57:26;;;;;;;1999.90;999.90;;;;;;;-2.86;100.00;97412.91;5091984;28;20540;-74
2023/01/21 07:59:51;;;;;;;1999.90;999.90;;;;;;;-2.68;100.00;97413.94;5091565;28;20031;-75
2023/01/21 08:02:16;;;;;;;1999.90;999.90;;;;;;;-2.57;100.00;97408.66;5091228;28;20043;-74
2023/01/21 08:04:41;;;;;;;1999.90;999.90;;;;;;;-2.55;100.00;97414.59;5089912;28;20016;-75
2023/01/21 08:07:08;;;;;;;1999.90;999.90;;;;;;;-2.40;100.00;97406.97;5090531;28;20131;-74
2023/01/21 08:09:36;;;;;;;1999.90;999.90;;;;;;;-2.30;100.00;97417.13;5094570;28;20046;-75
2023/01/21 08:12:03;;;;;;;1999.90;999.90;;;;;;;-2.23;100.00;97410.66;5102995;28;20026;-74
2023/01/21 08:14:28;;;;;;;1999.90;999.90;;;;;;;-2.21;100.00;97410.41;5110466;28;20145;-75
2023/01/21 08:16:54;;;;;;;1999.90;999.90;;;;;;;-2.11;100.00;97407.19;5095022;28;20543;-74
2023/01/21 08:19:19;;;;;;;1999.90;999.90;;;;;;;-2.22;100.00;97403.41;5099817;28;20047;-75
2023/01/21 08:21:45;;;;;;;1999.90;999.90;;;;;;;-2.10;100.00;97400.78;5100438;28;20035;-76
2023/01/21 08:24:10;;;;;;;1999.90;999.90;;;;;;;-2.05;100.00;97415.13;5108281;28;20019;-76
2023/01/21 08:26:35;;;;;;;1999.90;999.90;;;;;;;-1.96;100.00;97407.56;5102360;28;20124;-73
2023/01/21 08:29:01;;;;;;;1999.90;999.90;;;;;;;-1.96;100.00;97395.00;5091373;28;20028;-75
2023/01/21 08:31:26;;;;;;;1999.90;999.90;;;;;;;-1.82;100.00;97403.66;5091045;28;20024;-73
2023/01/21 08:33:51;;;;;;;1999.90;999.90;;;;;;;-1.80;100.00;97396.19;5089483;28;20054;-75
2023/01/21 08:36:17;;;;;;;1999.90;999.90;;;;;;;-1.68;100.00;97397.00;5091548;28;20031;-75
2023/01/21 08:38:42;;;;;;;1999.90;999.90;;;;;;;-1.64;100.00;97392.84;5093066;28;20028;-79
2023/01/21 08:41:09;;;;;;;1999.90;999.90;;;;;;;-1.49;100.00;97393.19;5095363;28;20070;-74
2023/01/21 08:43:35;;;;;;;1999.90;999.90;;;;;;;-1.34;100.00;97393.53;5097115;28;20025;-75
2023/01/21 08:46:00;;;;;;;1999.90;999.90;;;;;;;-1.29;100.00;97382.13;5105629;28;20023;-75
2023/01/21 08:48:29;;;;;;;1999.90;999.90;;;;;;;-1.25;100.00;97375.22;5110536;28;20488;-76
2023/01/21 08:50:58;;;;;;;1999.90;999.90;;;;;;;-1.00;100.00;97386.50;5111095;28;20110;-75
2023/01/21 08:53:24;;;;;;;1999.90;999.90;;;;;;;-0.91;100.00;97384.28;5110909;28;20024;-74
2023/01/21 08:55:49;;;;;;;1999.90;999.90;;;;;;;-0.87;100.00;97390.78;5110964;28;20553;-74
2023/01/21 08:58:14;;;;;;;1999.90;999.90;;;;;;;-0.79;100.00;97387.75;5111612;28;20063;-76
2023/01/21 09:00:40;;;;;;;1999.90;999.90;;;;;;;-0.67;100.00;97375.09;5110830;28;20119;-76
2023/01/21 09:03:06;;;;;;;1999.90;999.90;;;;;;;-0.65;100.00;97376.50;5098691;28;20020;-76
2023/01/21 09:05:31;;;;;;;1999.90;999.90;;;;;;;-0.58;100.00;97379.03;5090236;28;20040;-75
2023/01/21 09:07:57;;;;;;;1999.90;999.90;;;;;;;-0.52;100.00;97372.72;5090205;28;20028;-77
2023/01/21 09:13:08;;;;;;;1999.90;999.90;;;;;;;-0.14;100.00;97375.59;5090556;28;20077;-75
2023/01/21 09:15:38;;;;;;;1999.90;999.90;;;;;;;-0.02;100.00;97370.13;5095061;28;20448;-75
2023/01/21 09:18:03;;;;;;;1999.90;999.90;;;;;;;0.21;100.00;97371.88;5110769;28;20018;-74
2023/01/21 09:20:28;;;;;;;1999.90;999.90;;;;;;;0.20;100.00;97363.00;5098775;28;20032;-75
2023/01/21 09:22:54;;;;;;;1999.90;999.90;;;;;;;0.34;100.00;97376.94;5090360;28;20042;-74
2023/01/21 09:25:19;;;;;;;1999.90;999.90;;;;;;;0.46;100.00;97364.22;5095066;28;20039;-74
2023/01/21 09:27:44;;;;;;;1999.90;999.90;;;;;;;0.63;100.00;97365.00;5100022;28;20020;-74
2023/01/21 09:30:10;;;;;;;1999.90;999.90;;;;;;;0.88;100.00;97351.91;5098016;28;20032;-75
2023/01/21 09:32:36;;;;;;;1999.90;999.90;;;;;;;1.15;100.00;97361.97;5100559;28;20036;-74
2023/01/21 09:35:01;;;;;;;1999.90;999.90;;;;;;;1.24;100.00;97358.59;5098349;28;20476;-75
2023/01/21 09:37:26;;;;;;;1999.90;999.90;;;;;;;1.30;100.00;97348.69;5101253;28;20035;-75
2023/01/21 09:39:52;;;;;;;1999.90;999.90;;;;;;;1.28;100.00;97356.19;5105899;28;20027;-75
2023/01/21 09:42:22;;;;;;;1999.90;999.90;;;;;;;1.50;100.00;97347.03;5105677;28;20032;-76
2023/01/21 09:44:52;;;;;;;1999.90;999.90;;;;;;;1.58;100.00;97346.59;5107656;28;20172;-71
2023/01/21 09:47:22;;;;;;;1999.90;999.90;;;;;;;1.83;100.00;97359.50;5103096;28;20028;-74
2023/01/21 09:50:10;;;;;;;1999.90;999.90;;;;;;;2.15;100.00;97360.38;5114365;28;20027;-74
2023/01/21 09:52:38;;;;;;;1999.90;999.90;;;;;;;2.55;100.00;97351.78;5108506;28;20573;-75
2023/01/21 09:55:11;;;;;;;1999.90;999.90;;;;;;;3.00;100.00;97350.44;5093993;28;20032;-76
2023/01/21 09:58:15;;;;;;;1999.90;999.90;;;;;;;3.16;100.00;97344.84;5107563;28;20035;-76
2023/01/21 10:01:04;;;;;;;1999.90;999.90;;;;;;;3.81;100.00;97359.69;5100513;28;20472;-74
2023/01/21 10:04:00;;;;;;;1999.90;999.90;;;;;;;3.59;100.00;97350.97;5094016;28;20024;-75
2023/01/21 10:06:32;;;;;;;1999.90;999.90;;;;;;;4.32;100.00;97334.31;5107079;28;20059;-75
2023/01/21 10:09:14;;;;;;;1999.90;999.90;;;;;;;4.83;100.00;97345.09;5100556;28;20036;-75
2023/01/21 10:11:45;;;;;;;1999.90;999.90;;;;;;;4.97;100.00;97348.06;5103401;28;20472;-75
2023/01/21 10:14:48;;;;;;;1999.90;999.90;;;;;;;5.84;97.46;97352.88;5112531;28;20502;-75
2023/01/21 10:17:50;;;;;;;1999.90;999.90;;;;;;;6.16;93.59;97350.56;5114696;28;20115;-76
2023/01/21 10:20:54;;;;;;;1999.90;999.90;;;;;;;5.97;95.46;97344.16;5113599;28;20023;-74
2023/01/21 10:23:41;;;;;;;1999.90;999.90;;;;;;;7.28;89.44;97343.03;5067339;28;20081;-74
2023/01/21 10:26:10;;;;;;;1999.90;999.90;;;;;;;8.42;81.67;97340.16;5112251;28;20035;-75
2023/01/21 10:28:43;;;;;;;1999.90;999.90;;;;;;;7.54;81.80;97336.19;5105602;28;20028;-75
2023/01/21 10:31:27;;;;;;;1999.90;999.90;;;;;;;7.07;84.08;97322.59;5092245;28;20024;-76
2023/01/21 10:33:52;;;;;;;1999.90;999.90;;;;;;;6.29;91.59;97322.78;5095057;28;20135;-75
2023/01/21 10:36:45;;;;;;;1999.90;999.90;;;;;;;5.56;92.31;97310.16;5095378;28;20028;-77
2023/01/21 10:39:29;;;;;;;1999.90;999.90;;;;;;;5.54;95.01;97307.75;5097442;28;20028;-79
2023/01/21 10:41:57;;;;;;;1999.90;999.90;;;;;;;6.13;90.22;97326.69;5094215;28;20077;-78
2023/01/21 10:44:28;;;;;;;1999.90;999.90;;;;;;;5.54;89.05;97328.63;5109179;28;20028;-78
2023/01/21 10:47:20;;;;;;;1999.90;999.90;;;;;;;4.88;93.46;97319.91;5112668;28;20043;-77
2023/01/21 10:50:21;;;;;;;1999.90;999.90;;;;;;;6.66;86.24;97324.09;5114870;28;20038;-78
2023/01/21 10:52:56;;;;;;;1999.90;999.90;;;;;;;7.24;85.00;97324.84;5054955;28;20089;-77
2023/01/21 10:55:49;;;;;;;1999.90;999.90;;;;;;;7.23;81.91;97317.78;5090274;28;20031;-75
2023/01/21 10:58:21;;;;;;;1999.90;999.90;;;;;;;6.78;86.79;97321.78;5106630;28;20027;-75
2023/01/21 11:00:49;;;;;;;1999.90;999.90;;;;;;;7.25;84.19;97321.03;5104334;28;20019;-74
2023/01/21 11:03:27;;;;;;;1999.90;999.90;;;;;;;7.81;78.69;97312.97;5098558;28;20185;-74
2023/01/21 11:05:52;;;;;;;1999.90;999.90;;;;;;;7.70;75.89;97315.03;5101005;28;20603;-73